Terminal Aerodrome Forecast
Issued by NWS Blacksburg, VA

Current Version | Previous Version | Text Only | Print | Product List | Glossary Off
Versions: 1 2 3 4 5 6 7 8 9 10 11 12 13 14 15 16 17 18 19 20 21 22 23 24 25 26 27 28 29 30 31 32 33

000
FTUS41 KRNK 270904 AAA
TAFBLF
TAF AMD
KBLF 270904Z 2709/2806 VRB03KT P6SM SCT040 BKN140
     FM271500 26005KT P6SM BKN035
     FM271800 28006KT P6SM VCTS BKN035CB
     FM280200 VRB03KT 5SM BR SCT035 BKN140=

USA.gov is the U.S. government's official web portal to all federal, state and local government web resources and services.